Latest Coastal Weather Observations for Cairns

IDQ60701

Issued at 7:01 am EST Saturday 28 March 2015 (issued every 10 minutes, with the page automatically refreshed every 10 minutes)

About coastal observations | Map of coastal stations | Coastal observations for QLD | Marine services | Other Formats
Station Details ID: 031011 Name: CAIRNS AERO Lat: -16.87 Lon: 145.75 Height: 2.22 m
Data from the previous 72 hours. | See also: Recent months at Cairns
Date/Time
EST
Temp

°C
Wind Pressure Rain
since 9am
mm
Weather Cloud Vis
km
Sea
Height
m
Swell
Dir
 
Speed
knots
Gust
knots
hPa Trend Height
m
Period
s
Dir
28/06:30am 24.2 SE 8 9 1014.9 - 1.6 - Partly cloudy 10 - - - -
28/06:00am 24.9 S 6 11 1014.5 - 1.6 - Mostly clear 10 - - - -
28/05:30am 25.4 S 7 11 1014.4 - 1.6 - Mostly clear 10 - - - -
28/05:00am 24.8 SSE 7 10 1014.1 - 1.6 - Mostly clear 10 - - - -
28/04:30am 23.3 SE 8 9 1013.9 - 1.6 - Mostly clear 10 - - - -
28/04:00am 24.5 S 6 8 1013.8 - 1.6 - Mostly clear 10 - - - -
28/03:30am 24.0 SE 7 9 1014.0 - 1.6 - Mostly clear 10 - - - -
28/03:00am 24.4 SE 8 10 1013.9 - 1.6 - Mostly clear 10 - - - -
28/02:30am 24.5 SE 6 7 1014.0 - 1.6 - Mostly clear 10 - - - -
28/02:00am 24.2 S 10 15 1014.2 - 1.6 - Mostly clear 10 - - - -
28/01:00am 23.9 NNW 3 6 1014.5 - 1.6 - Mostly clear 10 - - - -
 
Date/Time
EST
Temp

°C
Wind Pressure Rain
since 9am
mm
Weather Cloud Vis
km
Sea
Height
m
Swell
Dir
 
Speed
knots
Gust
knots
hPa Trend Height
m
Period
s
Dir
27/11:30pm 24.1 S 5 6 1015.3 - 1.6 - Mostly clear 10 - - - -
27/11:00pm 26.0 S 4 6 1015.6 - 0.0 Showers Mostly clear 7 - - - -
27/10:30pm 25.8 SSE 4 6 1015.6 - 0.0 - Mostly clear 10 - - - -
27/10:00pm 26.4 S 4 5 1015.9 - 0.0 - Mostly clear 10 - - - -
27/09:30pm 26.6 SW 4 7 1015.9 - 0.0 - Mostly clear 10 - - - -
27/09:00pm 26.8 S 5 8 1015.4 - 0.0 - Mostly clear 10 - - - -
27/08:30pm 26.3 SW 4 7 1015.3 - 0.0 - Mostly clear 10 - - - -
27/08:00pm 26.8 S 6 9 1014.9 - 0.0 - Mostly clear 10 - - - -
27/07:30pm 26.5 S 6 8 1014.5 - 0.0 - Mostly clear 10 - - - -
27/07:00pm 27.0 S 5 8 1014.1 - 0.0 - Mostly clear 10 - - - -
27/06:30pm 27.4 SSE 7 12 1013.8 - 0.0 - Mostly clear 10 - - - -
27/06:00pm 28.2 ESE 10 14 1013.4 - 0.0 - Mostly clear 10 - - - -
27/05:30pm 29.3 E 10 14 1013.3 - 0.0 - Mostly clear 10 - - - -
27/05:00pm 30.2 E 11 14 1013.1 - 0.0 - Mostly clear 10 - - - -
27/04:30pm 30.6 E 10 14 1013.0 - 0.0 - Mostly clear 10 - - - -
27/04:00pm 30.6 ENE 11 15 1012.9 - 0.0 - Mostly clear 10 - - - -
27/03:30pm 31.0 ENE 10 13 1013.0 - 0.0 - Mostly clear 10 - - - -
27/03:00pm 30.7 E 10 14 1013.1 F 0.0 Fine Mostly cloudy 30 - - - -
27/02:30pm 30.8 NE 11 15 1013.5 - 0.0 - Mostly clear 10 - - - -
27/02:00pm 31.1 NE 10 13 1013.7 - 0.0 - Mostly clear 10 - - - -
27/01:30pm 30.6 ENE 8 14 1014.0 - 0.0 - Mostly clear 10 - - - -
27/01:00pm 31.0 E 11 17 1014.4 - 0.0 - Mostly clear 10 - - - -
27/12:30pm 31.3 ENE 12 16 1014.8 - 0.0 - Mostly clear 10 - - - -
27/12:00pm 31.4 E 10 14 1015.2 - 0.0 - Cloudy 10 - - - -
27/11:30am 30.3 E 7 11 1015.7 - 0.0 - Mostly clear 10 - - - -
27/11:00am 30.0 ESE 9 12 1016.2 - 0.0 - Mostly clear 10 - - - -
27/10:30am 29.6 SSE 11 17 1016.3 - 0.0 - Mostly clear 10 - - - -
27/10:00am 29.0 S 8 11 1016.4 - 0.0 - Mostly clear 10 - - - -
27/09:30am 28.4 S 8 13 1016.4 - 0.0 - Mostly clear 10 - - - -
27/09:00am 28.1 S 7 12 1016.2 F 0.0 Distant precip. Partly cloudy 30 - - - -
27/08:30am 27.3 S 5 8 1016.2 - 0.0 - Mostly clear 10 - - - -
27/08:00am 26.0 S 6 9 1016.0 - 0.0 - Mostly clear 10 - - - -
27/07:30am 24.4 SE 9 11 1015.8 - 0.0 - Mostly clear 10 - - - -
27/07:00am 24.1 SE 9 11 1015.5 - 0.0 - Mostly clear 10 - - - -
27/06:30am 25.0 SSE 7 10 1015.4 - 0.0 - Mostly clear 10 - - - -
27/06:00am 25.2 S 5 9 1015.2 - 0.0 - Mostly clear 10 - - - -
27/05:30am 24.8 SSE 7 10 1015.0 - 0.0 - Mostly clear 10 - - - -
27/05:00am 23.9 SE 9 12 1014.8 - 0.0 - Mostly clear 10 - - - -
27/04:30am 23.2 SE 9 10 1014.4 - 0.0 - Mostly clear 10 - - - -
27/04:00am 23.0 SE 9 13 1014.4 - 0.0 - Mostly clear 10 - - - -
27/03:30am 23.7 ESE 6 9 1014.4 - 0.0 - Mostly clear 10 - - - -
27/03:00am 23.6 SSE 7 9 1014.5 - 0.0 - Mostly clear 10 - - - -
27/02:30am 23.7 SE 8 10 1014.7 - 0.0 - - 10 - - - -
27/02:00am 24.1 SSE 5 7 1015.0 - 0.0 - Mostly clear 10 - - - -
27/01:30am 24.3 SE 6 7 1015.3 - 0.0 - Mostly clear 10 - - - -
27/01:00am 24.9 SE 5 7 1015.7 - 0.0 - Mostly clear 10 - - - -
27/12:30am 25.7 SSE 4 6 1016.0 - 0.0 - Mostly clear 10 - - - -
27/12:00am 25.7 SSE 5 6 1016.3 - 0.0 - Cloudy 10 - - - -
 
Date/Time
EST
Temp

°C
Wind Pressure Rain
since 9am
mm
Weather Cloud Vis
km
Sea
Height
m
Swell
Dir
 
Speed
knots
Gust
knots
hPa Trend Height
m
Period
s
Dir
26/11:30pm 25.6 CALM 0 2 1016.4 - 0.0 - Mostly clear 10 - - - -
26/11:00pm 25.8 SSW 3 5 1016.6 - 0.0 - Mostly clear 10 - - - -
26/10:30pm 26.4 SW 4 6 1016.4 - 0.0 - Mostly clear 10 - - - -
26/10:00pm 26.6 S 6 10 1016.3 - 0.0 - Mostly clear 10 - - - -
26/09:30pm 26.5 S 5 8 1016.0 - 0.0 - Mostly clear 10 - - - -
26/09:00pm 26.6 SSW 4 7 1015.6 - 0.0 - Mostly clear 10 - - - -
26/08:30pm 27.1 S 6 9 1015.7 - 0.0 - Mostly clear 10 - - - -
26/08:00pm 26.7 S 5 7 1015.3 - 0.0 - Mostly clear 10 - - - -
26/07:30pm 26.7 SSE 5 8 1014.9 - 0.0 - Mostly clear 10 - - - -
26/07:00pm 26.9 S 5 8 1014.6 - 0.0 - Mostly clear 10 - - - -
26/06:30pm 27.7 S 11 13 1014.3 - 0.0 - Mostly clear 10 - - - -
26/06:00pm 28.4 SE 12 15 1013.9 - 0.0 - Mostly clear 10 - - - -
26/05:30pm 29.3 SE 12 16 1013.7 - 0.0 - Mostly clear 10 - - - -
26/05:00pm 29.9 E 11 15 1013.4 - 0.0 - Mostly clear 10 - - - -
26/04:30pm 30.7 ENE 9 14 1013.0 - 0.0 - Mostly clear 10 - - - -
26/04:00pm 31.0 ENE 11 14 1012.9 - 0.0 - Mostly clear 10 - - - -
26/03:30pm 31.6 E 11 15 1012.9 - 0.0 - Mostly clear 10 - - - -
26/03:00pm 31.8 E 10 16 1012.8 F 0.0 Fine Partly cloudy 40 - - - -
26/02:30pm 32.4 ESE 11 14 1013.2 - 0.0 - Mostly clear 10 - - - -
26/02:00pm 31.9 ESE 8 13 1013.4 - 0.0 - Mostly clear 10 - - - -
26/01:30pm 31.9 ESE 9 14 1013.8 - 0.0 - Mostly clear 10 - - - -
26/01:00pm 31.6 ESE 9 15 1014.2 - 0.0 - Mostly clear 10 - - - -
26/12:30pm 31.6 E 8 14 1014.7 - 0.0 - Mostly clear 10 - - - -
26/12:00pm 31.6 ESE 9 13 1014.9 - 0.0 - Mostly clear 10 - - - -
26/11:30am 31.1 SE 9 15 1015.5 - 0.0 - Mostly clear 10 - - - -
26/11:00am 30.3 SSE 9 14 1015.9 - 0.0 - Mostly clear 10 - - - -
26/10:30am 30.3 SSE 8 13 1016.0 - 0.0 - Mostly clear 10 - - - -
26/10:00am 29.7 SSE 8 12 1016.1 - 0.0 - Mostly clear 10 - - - -
26/09:30am 28.5 SSE 8 14 1016.2 - 0.0 - Mostly clear 10 - - - -
26/09:00am 28.6 SSE 7 10 1016.0 F 0.0 Fine Mostly clear 30 - - - -
26/08:30am 27.6 WSW 5 8 1016.0 - 0.0 - Mostly clear 10 - - - -
26/08:00am 26.4 SE 6 8 1015.8 - 0.0 - Mostly clear 10 - - - -
26/07:30am 25.2 SE 7 9 1015.6 - 0.0 - Mostly clear 10 - - - -
26/07:00am 24.0 SSE 7 9 1015.4 - 0.0 - Mostly clear 10 - - - -
26/06:30am 23.6 S 3 6 1015.1 - 0.0 - Mostly clear 10 - - - -
26/06:00am 23.9 SE 7 9 1014.7 - 0.0 - Mostly clear 10 - - - -
26/05:30am 24.3 SE 6 8 1014.8 - 0.0 - Mostly clear 10 - - - -
26/05:00am 24.5 SSE 7 8 1014.6 - 0.0 - Mostly clear 10 - - - -
26/04:30am 24.3 SE 8 9 1014.3 - 0.0 - Mostly clear 10 - - - -
26/04:00am 24.7 SE 7 9 1014.1 - 0.0 - Mostly clear 10 - - - -
26/03:30am 24.8 SSE 6 8 1014.3 - 0.0 - Mostly clear 10 - - - -
26/03:00am 25.0 SE 7 7 1014.3 - 0.0 - Mostly clear 10 - - - -
26/02:30am 25.1 SE 5 6 1014.5 - 0.0 - Mostly clear 10 - - - -
26/02:00am 25.4 SE 4 6 1014.7 - 0.0 - Mostly clear 10 - - - -
26/01:30am 25.8 S 5 6 1014.9 - 0.0 - Mostly clear 10 - - - -
26/01:00am 25.2 SSE 3 4 1015.0 - 0.0 - Mostly clear 10 - - - -
26/12:30am 25.4 ESE 4 5 1015.3 - 0.0 - Mostly clear 10 - - - -
26/12:00am 26.0 SE 5 6 1015.4 - 0.0 - Partly cloudy 10 - - - -
 
Date/Time
EST
Temp

°C
Wind Pressure Rain
since 9am
mm
Weather Cloud Vis
km
Sea
Height
m
Swell
Dir
 
Speed
knots
Gust
knots
hPa Trend Height
m
Period
s
Dir
25/11:30pm 26.0 SSE 4 6 1015.6 - 0.0 - Mostly clear 10 - - - -
25/11:00pm 26.3 SSE 4 5 1015.8 - 0.0 - Mostly clear 10 - - - -
25/10:30pm 26.7 S 5 6 1015.7 - 0.0 - Mostly clear 10 - - - -
25/10:00pm 26.6 SSE 4 5 1015.6 - 0.0 - Mostly clear 10 - - - -
25/09:30pm 27.1 SSE 4 5 1015.5 - 0.0 - Mostly clear 10 - - - -
25/09:00pm 27.4 SE 4 6 1015.1 - 0.0 - Cloudy 10 - - - -
25/08:30pm 27.8 SE 4 7 1014.9 - 0.0 - Mostly clear 10 - - - -
25/08:00pm 27.8 S 4 5 1014.7 - 0.0 - Mostly clear 10 - - - -
25/07:30pm 27.9 S 4 6 1014.3 - 0.0 - Mostly clear 10 - - - -
25/07:00pm 27.9 SSE 5 7 1013.9 - 0.0 - Mostly clear 10 - - - -
25/06:30pm 28.4 E 7 9 1013.7 - 0.0 - Partly cloudy 10 - - - -
25/06:00pm 28.9 E 8 10 1013.2 - 0.0 - Cloudy 10 - - - -
25/05:30pm 29.6 ENE 9 12 1012.8 - 0.0 - Partly cloudy 10 - - - -
25/05:00pm 29.6 NNE 8 11 1012.5 - 0.0 - Mostly clear 10 - - - -
25/04:30pm 29.8 NE 7 10 1012.4 - 0.0 - Mostly clear 10 - - - -
25/04:00pm 29.6 NNE 7 10 1012.6 - 0.0 - Mostly clear 10 - - - -
25/03:30pm 29.6 NNE 7 10 1012.5 - 0.0 - Mostly clear 10 - - - -
25/03:00pm 29.7 NE 7 11 1012.4 F 0.0 Fine Partly cloudy 35 - - - -
25/02:30pm 30.7 NNE 8 11 1012.7 - 0.0 - Mostly clear 10 - - - -
25/02:00pm 29.9 NE 9 12 1012.9 - 0.0 - Mostly clear 10 - - - -
25/01:30pm 29.9 NNE 9 13 1013.2 - 0.0 - Mostly clear 10 - - - -
25/01:00pm 29.9 N 9 12 1013.6 - 0.0 - Mostly clear 10 - - - -
25/12:30pm 30.5 NNE 8 10 1014.1 - 0.0 - Mostly clear 10 - - - -
25/12:00pm 30.4 NNE 9 12 1014.5 - 0.0 - Mostly clear 10 - - - -
25/11:30am 30.6 N 7 10 1015.1 - 0.0 - Mostly clear 10 - - - -
25/11:00am 30.0 NE 8 11 1015.5 - 0.0 - Mostly clear 10 - - - -
25/10:30am 30.4 E 4 7 1015.8 - 0.0 - Mostly clear 10 - - - -
25/10:00am 29.3 E 4 8 1016.0 - 0.0 - Mostly clear 10 - - - -
25/09:30am 28.9 NNE 1 4 1016.2 - 0.0 - Mostly clear 10 - - - -
25/09:00am 27.3 NW 3 6 1016.0 F 0.2 Fine Mostly clear 25 - - - -
25/08:30am 27.1 SE 5 6 1016.0 - 0.2 - Mostly clear 10 - - - -
25/08:00am 26.1 SSE 5 7 1015.7 - 0.2 - Mostly clear 10 - - - -
25/07:30am 24.6 CALM 0 0 1015.5 - 0.2 - Mostly clear 10 - - - -

Other Formats:

Comma delimited format used in spreadsheet applications
http://www.bom.gov.au/fwo/IDQ60701/IDQ60701.94287.axf

JavaScript Object Notation format (JSON) in row-major order
http://www.bom.gov.au/fwo/IDQ60701/IDQ60701.94287.json